createdAt,value
2019-05-26T05:09:20.751Z,47.00
2019-05-26T05:11:50.452Z,49.80
2019-05-26T05:14:19.196Z,49.40
2019-05-26T05:16:47.676Z,49.30
2019-05-26T05:19:16.159Z,49.20
2019-05-26T05:21:44.982Z,49.00
2019-05-26T05:24:13.479Z,49.00
2019-05-26T05:31:38.816Z,48.80
2019-05-26T05:36:35.564Z,48.70
2019-05-26T05:44:01.766Z,48.50
2019-05-26T05:46:30.267Z,48.50
2019-05-26T05:48:59.026Z,48.50
2019-05-26T05:51:27.501Z,48.50
2019-05-26T05:53:55.991Z,48.20
2019-05-26T05:56:24.465Z,48.30
2019-05-26T05:58:52.970Z,48.20
2019-05-26T06:01:21.428Z,48.20
2019-05-26T06:03:49.917Z,48.30
2019-05-26T06:06:18.419Z,48.30
2019-05-26T06:08:46.917Z,48.20
2019-05-26T06:11:17.190Z,48.10
2019-05-26T06:13:44.084Z,48.20
2019-05-26T06:21:09.128Z,48.10
2019-05-26T06:23:37.619Z,48.10
2019-05-26T06:26:06.439Z,48.10
2019-05-26T06:28:34.925Z,48.10
2019-05-26T06:31:03.422Z,48.20
2019-05-26T06:33:31.914Z,48.20
2019-05-26T06:36:00.404Z,48.10
2019-05-26T06:45:53.995Z,48.60
2019-05-26T06:48:26.598Z,47.80
2019-05-26T06:50:52.011Z,48.00
2019-05-26T06:53:20.500Z,48.20
2019-05-26T06:55:49.024Z,48.00
2019-05-26T06:58:17.494Z,48.00
2019-05-26T07:00:45.977Z,47.80
2019-05-26T07:03:14.458Z,48.00
2019-05-26T07:05:42.946Z,48.10
2019-05-26T07:08:11.769Z,47.90
2019-05-26T07:10:40.260Z,48.00
2019-05-26T07:15:37.372Z,47.90
2019-05-26T07:18:05.859Z,47.80
2019-05-26T07:20:34.342Z,47.90
2019-05-26T07:23:03.348Z,48.00
2019-05-26T07:25:31.602Z,48.10
2019-05-26T07:28:00.088Z,48.00
2019-05-26T07:30:28.574Z,48.10
2019-05-26T07:32:57.119Z,47.80
2019-05-26T07:35:25.603Z,48.20
2019-05-26T07:37:54.086Z,48.00
2019-05-26T07:40:22.606Z,47.90
2019-05-26T07:42:51.072Z,48.70
2019-05-26T07:45:19.587Z,47.70
2019-05-26T07:50:16.334Z,48.00
2019-05-26T07:57:41.342Z,48.10
2019-05-26T08:00:09.865Z,48.60
2019-05-26T08:02:38.672Z,48.60
2019-05-26T08:05:07.206Z,48.20
2019-05-26T08:12:32.674Z,48.10
2019-05-26T08:15:01.531Z,47.90
2019-05-26T08:17:30.012Z,48.30
2019-05-26T08:19:58.506Z,48.30
2019-05-26T08:22:26.990Z,48.30
2019-05-26T08:27:23.689Z,48.00
2019-05-26T08:29:52.183Z,48.00
2019-05-26T08:32:20.653Z,47.80
2019-05-26T08:34:49.486Z,48.40
2019-05-26T08:39:48.520Z,48.20
2019-05-26T08:42:26.795Z,48.50
2019-05-26T08:44:43.437Z,48.50
2019-05-26T08:47:11.947Z,48.10
2019-05-26T08:49:40.417Z,47.90
2019-05-26T08:52:08.886Z,47.80
2019-05-26T08:54:37.682Z,48.00
2019-05-26T08:57:06.181Z,47.90
2019-05-26T08:59:34.663Z,48.10
2019-05-26T09:02:03.125Z,47.80
2019-05-26T09:04:31.606Z,47.70
2019-05-26T09:07:00.083Z,47.70
2019-05-26T09:09:28.578Z,48.10
2019-05-26T09:11:57.390Z,48.30
2019-05-26T09:19:23.079Z,48.00
2019-05-26T09:21:51.599Z,48.30
2019-05-26T09:24:20.087Z,48.40
2019-05-26T09:26:48.569Z,48.30
2019-05-26T09:29:17.079Z,48.20
2019-05-26T09:31:45.556Z,48.00
2019-05-26T09:34:14.043Z,47.80
2019-05-26T09:36:42.543Z,48.00
2019-05-26T09:39:11.358Z,48.10
2019-05-26T09:41:39.834Z,48.20
2019-05-26T09:44:08.325Z,47.80
2019-05-26T09:46:37.164Z,48.20
2019-05-26T09:49:05.654Z,48.40
2019-05-26T09:51:34.386Z,48.20
2019-05-26T09:54:03.237Z,48.20
2019-05-26T09:56:31.718Z,48.00
2019-05-26T09:59:00.195Z,48.10
2019-05-26T10:01:29.023Z,48.20
2019-05-26T10:03:57.510Z,47.80
2019-05-26T10:08:54.225Z,48.10
2019-05-26T10:11:23.083Z,47.90
2019-05-26T10:13:51.573Z,48.00
2019-05-26T10:16:20.058Z,48.10
2019-05-26T10:18:48.546Z,47.80
2019-05-26T10:21:17.029Z,47.50
2019-05-26T10:23:45.823Z,47.60
2019-05-26T10:26:14.352Z,47.70
2019-05-26T10:33:40.020Z,48.00
2019-05-26T10:36:08.507Z,47.50
2019-05-26T10:38:37.357Z,47.50
2019-05-26T10:43:46.422Z,47.30
2019-05-26T10:46:03.294Z,47.40
2019-05-26T10:48:32.017Z,47.40
2019-05-26T10:51:00.836Z,47.10
2019-05-26T10:53:29.380Z,47.20
2019-05-26T10:55:57.870Z,47.30
2019-05-26T10:58:26.702Z,47.40
2019-05-26T11:00:55.190Z,47.30
2019-05-26T11:03:23.679Z,47.10
2019-05-26T11:05:52.173Z,47.20
2019-05-26T11:10:49.278Z,47.20
2019-05-26T11:13:18.006Z,47.80
2019-05-26T11:15:46.751Z,47.10
2019-05-26T11:18:15.306Z,47.40
2019-05-26T11:20:43.727Z,47.00
2019-05-26T11:23:12.208Z,47.10
2019-05-26T11:25:40.883Z,47.20
2019-05-26T11:28:09.387Z,47.00
2019-05-26T11:30:37.857Z,47.10
2019-05-26T11:33:06.596Z,47.10
2019-05-26T11:35:35.401Z,46.90
2019-05-26T11:38:03.920Z,47.00
2019-05-26T11:40:32.430Z,46.80
2019-05-26T11:43:14.050Z,46.80
2019-05-26T11:45:29.350Z,46.60
2019-05-26T11:47:58.179Z,46.90
2019-05-26T11:52:54.893Z,47.60
2019-05-26T11:55:23.371Z,46.80
2019-05-26T11:57:51.854Z,46.60
2019-05-26T12:00:20.344Z,46.70
2019-05-26T12:02:48.810Z,46.70
2019-05-26T12:05:17.909Z,46.90
2019-05-26T12:07:45.815Z,46.80
2019-05-26T12:10:14.724Z,47.00
2019-05-26T12:12:43.151Z,46.80
2019-05-26T12:15:11.649Z,46.90
2019-05-26T12:20:08.411Z,46.60
2019-05-26T12:22:36.909Z,46.60
2019-05-26T12:25:05.995Z,46.90
2019-05-26T12:27:34.456Z,46.90
2019-05-26T12:30:02.965Z,46.80
2019-05-26T12:32:31.449Z,47.50
2019-05-26T12:34:59.935Z,46.80
2019-05-26T12:37:28.422Z,46.30
2019-05-26T12:39:56.901Z,46.50
2019-05-26T12:42:25.754Z,46.40
2019-05-26T12:44:54.230Z,46.40
2019-05-26T12:49:51.619Z,46.40
2019-05-26T12:52:20.687Z,46.10
2019-05-26T12:54:49.437Z,46.30
2019-05-26T12:57:18.277Z,46.30
2019-05-26T13:02:15.020Z,46.20
2019-05-26T13:04:43.862Z,46.30
2019-05-26T13:07:12.347Z,46.20
2019-05-26T13:09:41.146Z,46.10
2019-05-26T13:12:09.630Z,46.20
2019-05-26T13:14:38.106Z,46.30
2019-05-26T13:17:06.861Z,46.00
2019-05-26T13:19:35.674Z,46.60
2019-05-26T13:22:04.322Z,46.00
2019-05-26T13:24:33.151Z,46.00
2019-05-26T13:27:01.643Z,45.90
2019-05-26T13:29:30.126Z,46.00
2019-05-26T13:31:58.966Z,46.00
2019-05-26T13:34:27.462Z,45.30
2019-05-26T13:36:55.959Z,46.00
2019-05-26T13:39:24.442Z,45.90
2019-05-26T13:41:52.923Z,46.70
2019-05-26T13:44:21.776Z,45.80
2019-05-26T13:46:50.800Z,46.00
2019-05-26T13:49:19.522Z,46.00
2019-05-26T13:51:50.360Z,45.90
2019-05-26T13:54:16.558Z,46.00
2019-05-26T13:56:45.407Z,46.00
2019-05-26T13:59:13.876Z,46.40
2019-05-26T14:01:42.700Z,45.80
2019-05-26T14:04:11.819Z,45.70
2019-05-26T14:09:10.185Z,45.70
2019-05-26T14:11:39.267Z,45.50
2019-05-26T14:14:07.750Z,45.60
2019-05-26T14:16:36.241Z,45.50
2019-05-26T14:19:04.777Z,45.40
2019-05-26T14:21:33.270Z,45.40
2019-05-26T14:24:01.763Z,46.10
2019-05-26T14:26:30.287Z,45.30
2019-05-26T14:28:58.775Z,45.30
2019-05-26T14:33:55.565Z,45.30
2019-05-26T14:36:24.055Z,45.30
2019-05-26T14:38:53.046Z,45.40
2019-05-26T14:41:21.526Z,45.30
2019-05-26T14:43:50.010Z,45.30
2019-05-26T14:46:18.871Z,45.20
2019-05-26T14:48:47.353Z,45.20
2019-05-26T14:51:15.835Z,45.20
2019-05-26T14:53:44.322Z,45.30
2019-05-26T14:56:12.811Z,45.30
2019-05-26T14:58:41.294Z,45.20
2019-05-26T15:01:09.770Z,45.20
2019-05-26T15:03:38.263Z,45.10
2019-05-26T15:06:06.746Z,45.10
2019-05-26T15:08:35.221Z,45.20
2019-05-26T15:11:03.694Z,45.10
2019-05-26T15:13:32.454Z,45.10
2019-05-26T15:16:09.807Z,45.10
2019-05-26T15:18:29.418Z,45.10
2019-05-26T15:20:58.154Z,45.20
2019-05-26T15:23:26.967Z,45.10
2019-05-26T15:28:23.682Z,45.00
2019-05-26T15:30:52.158Z,45.00
2019-05-26T15:33:20.644Z,45.00
2019-05-26T15:35:49.129Z,44.90
2019-05-26T15:38:18.031Z,44.90
2019-05-26T15:40:46.589Z,44.90
2019-05-26T15:43:15.214Z,44.80
2019-05-26T15:50:40.239Z,44.60
2019-05-26T15:53:08.723Z,44.50
2019-05-26T15:58:05.910Z,44.50
2019-05-26T16:00:34.971Z,44.30
2019-05-26T16:03:03.452Z,44.10
2019-05-26T16:05:32.210Z,44.20
2019-05-26T16:08:00.709Z,44.00
2019-05-26T16:10:29.258Z,44.20
2019-05-26T16:12:57.758Z,44.10
2019-05-26T16:15:26.237Z,44.20
2019-05-26T16:17:54.706Z,44.20
2019-05-26T16:20:23.198Z,44.20
2019-05-26T16:22:51.691Z,44.30
2019-05-26T16:25:20.377Z,44.30
2019-05-26T16:27:48.814Z,44.30
2019-05-26T16:30:17.383Z,44.30
2019-05-26T16:32:45.971Z,45.00
2019-05-26T16:35:14.462Z,44.30
2019-05-26T16:37:42.948Z,44.30
2019-05-26T16:40:11.430Z,44.30
2019-05-26T16:42:39.894Z,44.20
2019-05-26T16:45:08.392Z,44.30
2019-05-26T16:47:36.858Z,44.30
2019-05-26T16:50:05.395Z,44.30
2019-05-26T16:52:33.890Z,44.30
2019-05-26T16:55:02.380Z,44.40
2019-05-26T16:57:30.865Z,44.30
2019-05-26T16:59:59.359Z,44.40
2019-05-26T17:02:27.854Z,44.40
2019-05-26T17:04:56.666Z,44.40
2019-05-26T17:07:25.154Z,44.40
2019-05-26T17:09:53.642Z,44.50
2019-05-26T17:12:22.458Z,44.50
2019-05-26T17:14:51.396Z,44.40
2019-05-26T17:17:19.902Z,44.50
2019-05-26T17:19:48.717Z,44.40
2019-05-26T17:22:17.490Z,44.40
2019-05-26T17:24:45.970Z,44.50
2019-05-26T17:27:14.461Z,44.40
2019-05-26T17:29:42.942Z,44.40
2019-05-26T17:32:11.418Z,44.50
2019-05-26T17:34:40.225Z,44.40
2019-05-26T17:37:09.025Z,44.40
2019-05-26T17:39:37.872Z,44.50
2019-05-26T17:42:06.631Z,44.50
2019-05-26T17:44:35.083Z,44.40
2019-05-26T17:47:03.810Z,44.50
2019-05-26T17:52:01.006Z,44.50
2019-05-26T17:54:29.443Z,44.50
2019-05-26T17:56:57.957Z,44.50
2019-05-26T17:59:26.435Z,44.50
2019-05-26T18:01:54.910Z,44.60
2019-05-26T18:06:51.978Z,44.50
2019-05-26T18:09:20.734Z,44.60
2019-05-26T18:11:49.237Z,44.70
2019-05-26T18:14:18.433Z,44.90
2019-05-26T18:16:46.907Z,44.80
2019-05-26T18:24:12.531Z,45.00
2019-05-26T18:26:41.015Z,45.10
2019-05-26T18:29:09.502Z,45.00
2019-05-26T18:34:06.227Z,45.30
2019-05-26T18:36:34.704Z,45.30
2019-05-26T18:39:03.958Z,45.40
2019-05-26T18:41:32.445Z,45.50
2019-05-26T18:44:00.939Z,45.80
2019-05-26T18:46:29.416Z,45.70
2019-05-26T18:48:57.897Z,46.00
2019-05-26T18:51:26.723Z,46.10
2019-05-26T18:53:55.236Z,46.00
2019-05-26T19:03:49.188Z,46.10
2019-05-26T19:06:17.665Z,46.20
2019-05-26T19:08:46.534Z,46.20
2019-05-26T19:11:15.018Z,46.20
2019-05-26T19:13:43.502Z,46.20
2019-05-26T19:18:40.418Z,46.20
2019-05-26T19:21:09.237Z,46.30
2019-05-26T19:23:38.094Z,46.50
2019-05-26T19:26:06.925Z,46.40
2019-05-26T19:31:04.470Z,46.60
2019-05-26T19:36:01.231Z,46.40
2019-05-26T19:40:57.956Z,46.80
2019-05-26T19:43:26.455Z,46.60
2019-05-26T19:45:54.938Z,46.70
2019-05-26T19:48:35.706Z,46.70
2019-05-26T19:50:52.627Z,46.90
2019-05-26T19:55:49.380Z,46.70
2019-05-26T20:00:46.430Z,47.00
2019-05-26T20:05:43.887Z,47.10
2019-05-26T20:08:12.366Z,47.20
2019-05-26T20:10:41.217Z,47.10
2019-05-26T20:13:09.676Z,47.20
2019-05-26T20:15:38.292Z,47.00
2019-05-26T20:18:06.637Z,47.20
2019-05-26T20:20:35.465Z,47.20
2019-05-26T20:23:03.945Z,47.20
2019-05-26T20:25:32.420Z,47.20
2019-05-26T20:28:01.279Z,47.10
2019-05-26T20:30:29.754Z,47.30
2019-05-26T20:32:58.569Z,47.30
2019-05-26T20:35:27.391Z,47.30
2019-05-26T20:37:56.324Z,47.40
2019-05-26T20:40:24.821Z,47.20
2019-05-26T20:42:53.280Z,47.40
2019-05-26T20:45:21.770Z,47.40
2019-05-26T20:47:50.241Z,47.50
2019-05-26T20:50:28.530Z,48.10
2019-05-26T20:52:47.454Z,47.60
2019-05-26T20:55:16.092Z,47.70
